KISW/ISW METAR and TAF weather

Enter ICAO airport designator
Station Type Date Time Source
KISW METAR 2020/09/28 09:54 UTC NOAA

KISW 280954Z AUTO 27006KT 10SM OVC070 11/09 A2972 RMK AO2 SLP064 T01110094


Station Type Date Time Source
KISW Decoded METAR 2020/09/28 09:54 UTC NOAA

WI RAPIDS ALEXANDER FIELD, WI, United States (KISW) 44-22N 89-50W 307M
Sep 28, 2020 - 05:54 AM EDT / 2020.09.28 0954 UTC
Wind: from the W (270 degrees) at 7 MPH (6 KT):0
Visibility: 10 mile(s):0
Sky conditions: overcast
Temperature: 52.0 F (11.1 C)
Dew Point: 48.9 F (9.4 C)
Relative Humidity: 89%
Pressure (altimeter): 29.72 in. Hg (1006 hPa)
ob: KISW 280954Z AUTO 27006KT 10SM OVC070 11/09 A2972 RMK AO2 SLP064 T01110094
cycle: 10

Station Type Date Time Source
KISW TAF UTC NOAA

Error!

Example: see airport list